WAOO

Banjarmasin/Syamsudin Noor Airport

Airport
ICAO code
WAOO
IATA Code
BDJ
Summary
ICAO Region
APAC
ICAO Territory
Location

Banjarbaru, Kalimantan Selatan

Serving
Banjarmasin
Elevation
66 ft
Coordinates
3° 26' 32" S , 114° 45' 45" E
Metar
Observation
WAOO 272030Z AUTO 09004KT 8000 BKN075 OVC240 23/23 Q1005
Station
SYAMSUDIN NOOR
Date/Time
2023-01-27 20:30:00
Wind direction
90°
Wind speed
04 kts
Lowest cloud amount
broken clouds
Temperature
23°C
Dew point
23°C
Humidity
100%
QNH
1005 hPa
Weather condition
n/a

Airport map

Aerial View

SKYbrary Partners:

Safety knowledge contributed by: